ESSA/ARN METAR and TAF weather

Enter ICAO airport designator
Station Type Date Time Source
ESSA METAR 2020/11/28 19:50 UTC NOAA

ESSA 281950Z 34005KT 9999 -SHSN FEW004 SCT008 BKN022 M00/M00 Q1029 R01R/19//95 R08/19//95 NOSIG


Station Type Date Time Source
ESSA Decoded METAR 2020/11/28 19:50 UTC NOAA

Stockholm / Arlanda, Sweden (ESSA) 59-39N 017-57E 61M
Nov 28, 2020 - 02:50 PM EST / 2020.11.28 1950 UTC
Wind: from the NNW (340 degrees) at 6 MPH (5 KT):0
Visibility: greater than 7 mile(s):0
Sky conditions: mostly cloudy
Weather: light snow showers
Temperature: 32 F (0 C)
Windchill: 26 F (-3 C):1
Dew Point: 32 F (0 C)
Relative Humidity: 100%
Pressure (altimeter): 30.39 in. Hg (1029 hPa)
ob: ESSA 281950Z 34005KT 9999 -SHSN FEW004 SCT008 BKN022 M00/M00 Q1029 R01R/19//95 R08/19//95 NOSIG
cycle: 20

Station Type Date Time Source
ESSA TAF 2020/11/28 18:18 UTC NOAA

TAF ESSA 281730Z 2818/2918 36005KT 9999 BKN020
TEMPO 2818/2910 -SHSN BKN014TCU PROB40 2910/2916 SHRASN BKN018TCU

Example: see airport list